Olive Hill, KY (41164)

10:55 PM EDT on July 29, 2016 (GMT -0400)
Green | | Change Station

Elev 883 ft 38.19 °N, 83.08 °W | Updated 6 minutes ago

Clear
Clear
73.9 °F
Feels Like 77 °F
N
0.0
Wind Variable Wind from North
Gusts 0.0 mph

Today
High -- | Low -- °F
--% Chance of Precip.
Yesterday
High -- | Low -- °F
Precip. -- in
Pressure 29.93 in
Visibility 10.0 miles
Clouds Clear
Heat Index 77 °F
Dew Point 55 °F
Humidity 51%
Rainfall Not available.
Snow Depth Not available.
6:32 AM 8:44 PM
Waning Crescent, 17% visible
METAR KHTS 300251Z 18004KT 10SM CLR 23/22 A2995 RMK AO2 SLP133 60001 T02330217 51010
Pressure 29.93 in
Visibility 10.0 miles
Clouds Clear
Heat Index 77 °F
Dew Point 55 °F
Humidity 51%
Rainfall Not available.
Snow Depth Not available.
6:32 AM 8:44 PM
Waning Crescent, 17% visible
METAR KHTS 300251Z 18004KT 10SM CLR 23/22 A2995 RMK AO2 SLP133 60001 T02330217 51010

10-Day Weather Forecast

Almanac

Astronomy

Jul. 29, 2016 Rise Set
Actual Time
Civil Twilight
Nautical Twilight
Astronomical Twilight
Moon
Length of Visible Light
Length of Day
Tomorrow will be .
, % of the Moon is Illuminated

Today's Extremes

State Highs State Lows

Community

WunderPhotos

Upload Photos

1,928,491 photos uploaded!

WunderBlog® & News

Nearby

Air Quality

  Air Quality AQ Index Pollutant
Not available.

Snow Depth

Station Depth Elevation

Earthquake Activity

City Distance Mag. Time & Date
Minimum magnitude displayed is 2.5.

Coastal Water Temperatures

Place Temperature

Stations

Nearby Weather Stations

Station Location Temp. Windchill Dew Point Humidity Wind Precip. Elev Updated Type
                   

Watches & Warnings

There are currently no watches in effect.